Disclaimer

    

CYCD

METAR CYCD 132200Z 02007KT 25SM FEW045 22/11 A3012 RMK CU2 SLP203 DENSITY ALT 800FT=

METAR CYCD 132100Z 36005KT 280V080 25SM FEW040 22/10 A3013 RMK CU2 SLP205 DENSITY ALT 700FT=

METAR CYCD 132000Z 36007KT 290V020 25SM FEW040 20/10 A3014 RMK CU2 SLP209 DENSITY ALT 500FT=

TAF CYCD 131741Z 1318/1404 VRB03KT P6SM FEW030 SCT220 BECMG 1318/1320 03008KT BECMG 1402/1404 VRB03KT RMK NXT FCST BY 140000Z=

CYVR

METAR CYVR 132200Z 23007KT 20SM FEW026 FEW260 18/13 A3013 RMK CU1CI1 CI TR SLP203 DENSITY ALT 200FT=

METAR CYVR 132100Z 27007KT 20SM FEW030 FEW045 FEW260 19/12 A3014 RMK CU1SC1CI1 SC TR CI TR SLP207 DENSITY ALT 200FT=

METAR CYVR 132000Z 26008KT 20SM FEW026 FEW045 FEW260 18/13 A3014 RMK CU1SC1CI1 SC TR SLP209 DENSITY ALT 200FT=

TAF CYVR 132038Z 1321/1424 26008KT P6SM FEW050 BECMG 1405/1407 10008KT BECMG 1416/1418 26010KT RMK NXT FCST BY 140000Z=

CYXX

METAR CYXX 132200Z 24006KT 180V250 30SM SCT042TCU 21/12 A3011 RMK TCU4 SLP198 DENSITY ALT 800FT=

METAR CYXX 132100Z 18005KT 30SM SCT045TCU 21/12 A3012 RMK TCU4 WND ESTD SLP200 DENSITY ALT 800FT=

METAR CYXX 132000Z 18009KT 160V300 30SM SCT050TCU SCT230 20/12 A3013 RMK TCU4CI1 CI TR SLP203 DENSITY ALT 700FT=

TAF CYXX 131741Z 1318/1418 VRB03KT P6SM SCT050 BECMG 1318/1320 23008KT BECMG 1405/1407 VRB03KT RMK NXT FCST BY 140000Z=

Supplemental information

Lower mainland ATIS: 1-877-517-2847

CZBB (Boundary Bay) current winds

Upper winds (Vancouver)

Data fromValid at300060009000
13120013180099003208+043209+02
13120014000030123011+073110+03
13120014120033083213+093112+05

NOTAMs

On October 10, 2019, NAV CANADA changed to the ICAO NOTAM format. They are now available only through Collaborative Flight Planning Services (CFPS) (plan.navcanada.ca). I'm working to update this site to pull in the relevant NOTAMs in the new format.